createdAt,value
2019-06-20T00:01:04.742Z,87.40
2019-06-20T00:03:34.294Z,87.60
2019-06-20T00:06:04.034Z,88.00
2019-06-20T00:08:33.666Z,88.90
2019-06-20T00:11:03.305Z,88.90
2019-06-20T00:13:32.962Z,90.90
2019-06-20T00:16:03.772Z,91.10
2019-06-20T00:18:33.389Z,90.20
2019-06-20T00:21:03.409Z,90.10
2019-06-20T00:23:33.025Z,90.00
2019-06-20T00:26:02.722Z,90.30
2019-06-20T00:28:32.328Z,90.20
2019-06-20T00:31:02.101Z,90.40
2019-06-20T00:33:31.656Z,90.50
2019-06-20T00:36:01.242Z,90.50
2019-06-20T00:38:30.874Z,90.60
2019-06-20T00:41:00.483Z,90.80
2019-06-20T00:43:30.083Z,91.10
2019-06-20T00:45:59.629Z,91.60
2019-06-20T00:48:29.258Z,91.40
2019-06-20T00:50:58.834Z,91.20
2019-06-20T00:53:28.377Z,90.90
2019-06-20T00:55:57.997Z,91.60
2019-06-20T00:58:27.735Z,91.70
2019-06-20T01:00:57.349Z,92.40
2019-06-20T01:03:26.963Z,92.00
2019-06-20T01:05:56.679Z,91.80
2019-06-20T01:08:26.225Z,91.60
2019-06-20T01:10:55.837Z,91.90
2019-06-20T01:13:33.519Z,92.50
2019-06-20T01:15:56.776Z,92.00
2019-06-20T01:18:26.328Z,91.70
2019-06-20T01:20:55.996Z,91.80
2019-06-20T01:23:25.614Z,92.10
2019-06-20T01:25:55.298Z,91.70
2019-06-20T01:28:25.052Z,91.90
2019-06-20T01:30:54.688Z,91.70
2019-06-20T01:33:24.227Z,91.10
2019-06-20T01:35:53.893Z,91.00
2019-06-20T01:38:23.441Z,91.00
2019-06-20T01:40:52.987Z,91.20
2019-06-20T01:43:22.620Z,91.00
2019-06-20T01:45:53.163Z,91.20
2019-06-20T01:48:22.686Z,91.50
2019-06-20T01:50:52.338Z,92.10
2019-06-20T01:53:21.907Z,91.80
2019-06-20T01:55:51.427Z,92.30
2019-06-20T01:58:21.013Z,92.00
2019-06-20T02:00:52.267Z,92.20
2019-06-20T02:03:22.257Z,92.30
2019-06-20T02:05:51.894Z,92.70
2019-06-20T02:08:21.508Z,92.20
2019-06-20T02:10:51.042Z,92.20
2019-06-20T02:13:20.716Z,91.80
2019-06-20T02:15:50.413Z,91.50
2019-06-20T02:18:20.127Z,91.40
2019-06-20T02:20:55.562Z,92.10
2019-06-20T02:23:25.318Z,92.50
2019-06-20T02:25:55.001Z,93.60
2019-06-20T02:28:25.109Z,93.70
2019-06-20T02:30:54.805Z,93.50
2019-06-20T02:33:24.485Z,93.30
2019-06-20T02:35:54.148Z,92.80
2019-06-20T02:38:23.792Z,92.50
2019-06-20T02:40:53.538Z,92.30
2019-06-20T02:43:24.017Z,92.40
2019-06-20T02:45:53.846Z,92.80
2019-06-20T02:48:23.528Z,92.30
2019-06-20T02:50:53.272Z,92.20
2019-06-20T02:53:23.043Z,92.60
2019-06-20T02:55:52.740Z,93.10
2019-06-20T02:58:22.477Z,92.80
2019-06-20T03:00:59.294Z,92.90
2019-06-20T03:03:29.781Z,92.50
2019-06-20T03:05:59.646Z,92.50
2019-06-20T03:08:30.201Z,92.00
2019-06-20T03:11:00.013Z,91.90
2019-06-20T03:13:30.272Z,92.30
2019-06-20T03:16:00.036Z,92.60
2019-06-20T03:18:29.753Z,93.10
2019-06-20T03:20:59.309Z,93.40
2019-06-20T03:23:28.927Z,93.40
2019-06-20T03:25:58.579Z,92.90
2019-06-20T03:28:28.228Z,92.70
2019-06-20T03:30:57.917Z,92.80
2019-06-20T03:33:28.748Z,92.70
2019-06-20T03:35:58.498Z,92.00
2019-06-20T03:38:28.119Z,91.80
2019-06-20T03:40:57.873Z,92.10
2019-06-20T03:43:27.424Z,91.90
2019-06-20T03:45:56.972Z,91.70
2019-06-20T03:48:26.629Z,91.40
2019-06-20T03:50:56.291Z,91.70
2019-06-20T03:53:25.874Z,91.50
2019-06-20T03:55:55.547Z,91.30
2019-06-20T03:58:25.097Z,90.60
2019-06-20T04:00:54.749Z,88.10
2019-06-20T04:03:24.399Z,85.40
2019-06-20T04:05:53.942Z,83.80
2019-06-20T04:08:23.484Z,82.40
2019-06-20T04:10:53.091Z,79.90
2019-06-20T04:13:22.727Z,80.40
2019-06-20T04:15:52.278Z,76.80
2019-06-20T04:18:21.861Z,74.90
2019-06-20T04:20:51.420Z,73.00
2019-06-20T04:23:21.040Z,70.80
2019-06-20T04:25:50.694Z,70.20
2019-06-20T04:28:20.239Z,69.70
2019-06-20T04:30:49.860Z,69.40
2019-06-20T04:33:19.471Z,70.40
2019-06-20T04:35:49.210Z,68.40
2019-06-20T04:38:18.969Z,67.00
2019-06-20T04:40:48.693Z,67.30
2019-06-20T04:43:18.243Z,66.00
2019-06-20T04:45:52.240Z,66.00
2019-06-20T04:48:21.831Z,64.90
2019-06-20T04:50:51.448Z,65.60
2019-06-20T04:53:21.071Z,64.30
2019-06-20T04:55:50.666Z,63.70
2019-06-20T04:58:20.211Z,64.00
2019-06-20T05:00:49.773Z,63.00
2019-06-20T05:03:19.462Z,61.50
2019-06-20T05:05:49.195Z,61.40
2019-06-20T05:08:18.811Z,61.60
2019-06-20T05:10:48.549Z,60.60
2019-06-20T05:13:18.096Z,60.00
2019-06-20T05:15:52.491Z,58.70
2019-06-20T05:18:19.018Z,58.90
2019-06-20T05:20:48.764Z,60.30
2019-06-20T05:23:18.443Z,61.90
2019-06-20T05:25:48.462Z,63.50
2019-06-20T05:28:19.498Z,65.60
2019-06-20T05:30:49.171Z,67.00
2019-06-20T05:33:18.968Z,66.50
2019-06-20T05:35:50.783Z,66.30
2019-06-20T05:38:20.502Z,65.90
2019-06-20T05:40:51.773Z,65.70
2019-06-20T05:43:21.691Z,65.60
2019-06-20T05:45:51.308Z,64.70
2019-06-20T05:48:20.978Z,65.20
2019-06-20T05:50:51.520Z,66.80
2019-06-20T05:53:21.214Z,66.20
2019-06-20T05:55:51.630Z,67.70
2019-06-20T05:58:21.761Z,69.10
2019-06-20T06:00:52.429Z,69.50
2019-06-20T06:03:23.408Z,69.10
2019-06-20T06:05:53.319Z,69.90
2019-06-20T06:08:23.127Z,71.00
2019-06-20T06:10:52.958Z,70.30
2019-06-20T06:13:22.787Z,69.80
2019-06-20T06:15:52.343Z,70.40
2019-06-20T06:18:22.466Z,70.40
2019-06-20T06:20:52.481Z,70.70
2019-06-20T06:23:22.966Z,71.20
2019-06-20T06:25:52.616Z,69.00
2019-06-20T06:28:22.256Z,67.50
2019-06-20T06:30:51.999Z,65.70
2019-06-20T06:33:21.741Z,64.40
2019-06-20T06:35:51.554Z,63.60
2019-06-20T06:38:22.228Z,60.10
2019-06-20T06:40:52.204Z,60.70
2019-06-20T06:43:23.233Z,60.40
2019-06-20T06:45:53.457Z,59.80
2019-06-20T06:48:23.615Z,60.60
2019-06-20T06:50:54.467Z,59.30
2019-06-20T06:53:24.999Z,59.50
2019-06-20T06:55:56.058Z,59.60
2019-06-20T06:58:25.919Z,58.50
2019-06-20T07:00:55.589Z,58.60
2019-06-20T07:03:25.586Z,58.00
2019-06-20T07:05:55.511Z,56.20
2019-06-20T07:08:25.359Z,56.70
2019-06-20T07:10:55.456Z,56.70
2019-06-20T07:13:25.423Z,56.60
2019-06-20T07:15:55.320Z,56.70
2019-06-20T07:18:25.091Z,55.30
2019-06-20T07:20:55.308Z,55.20
2019-06-20T07:23:25.498Z,56.20
2019-06-20T07:25:55.495Z,56.10
2019-06-20T07:28:25.393Z,55.90
2019-06-20T07:30:55.115Z,55.00
2019-06-20T07:33:24.780Z,55.80
2019-06-20T07:35:54.637Z,53.30
2019-06-20T07:38:24.390Z,54.70
2019-06-20T07:40:58.936Z,54.30
2019-06-20T07:43:29.191Z,53.40
2019-06-20T07:46:02.985Z,53.20
2019-06-20T07:48:31.762Z,53.90
2019-06-20T07:51:04.889Z,54.00
2019-06-20T07:53:35.608Z,55.60
2019-06-20T07:56:09.326Z,56.60
2019-06-20T07:58:37.824Z,55.50
2019-06-20T08:01:08.790Z,55.70
2019-06-20T08:03:39.896Z,55.10
2019-06-20T08:06:12.866Z,56.00
2019-06-20T08:08:44.199Z,54.30
2019-06-20T08:11:14.867Z,55.80
2019-06-20T08:13:45.509Z,55.60
2019-06-20T08:16:16.847Z,55.30
2019-06-20T08:18:46.873Z,54.50
2019-06-20T08:21:16.726Z,53.10
2019-06-20T08:23:46.694Z,52.50
2019-06-20T08:26:16.559Z,53.60
2019-06-20T08:28:46.260Z,54.00
2019-06-20T08:31:16.192Z,53.10
2019-06-20T08:33:46.039Z,53.50
2019-06-20T08:36:16.069Z,52.70
2019-06-20T08:38:45.961Z,54.30
2019-06-20T08:41:15.809Z,53.50
2019-06-20T08:43:46.149Z,51.80
2019-06-20T08:46:17.502Z,50.80
2019-06-20T08:48:47.313Z,48.90
2019-06-20T08:51:17.097Z,48.90
2019-06-20T08:53:47.911Z,49.30
2019-06-20T08:56:17.686Z,50.00
2019-06-20T08:58:47.720Z,49.60
2019-06-20T09:01:17.717Z,49.50
2019-06-20T09:03:47.466Z,50.50
2019-06-20T09:06:17.221Z,49.00
2019-06-20T09:08:46.916Z,48.70
2019-06-20T09:11:16.583Z,47.80
2019-06-20T09:13:46.401Z,48.30
2019-06-20T09:16:24.385Z,46.00
2019-06-20T09:18:47.488Z,46.40
2019-06-20T09:21:17.266Z,45.60
2019-06-20T09:23:46.990Z,46.00
2019-06-20T09:26:16.795Z,45.70
2019-06-20T09:28:46.436Z,45.80
2019-06-20T09:31:16.089Z,47.10
2019-06-20T09:33:45.863Z,46.40
2019-06-20T09:36:15.438Z,44.30
2019-06-20T09:38:45.113Z,43.30
2019-06-20T09:41:14.751Z,44.30
2019-06-20T09:43:44.811Z,44.60
2019-06-20T09:46:14.499Z,44.60
2019-06-20T09:48:44.470Z,41.00
2019-06-20T09:51:14.164Z,43.90
2019-06-20T09:53:44.268Z,44.10
2019-06-20T09:56:14.305Z,41.60
2019-06-20T09:58:44.111Z,42.90
2019-06-20T10:01:13.896Z,42.30
2019-06-20T10:03:43.572Z,41.80
2019-06-20T10:06:14.691Z,41.10
2019-06-20T10:08:46.581Z,42.30
2019-06-20T10:11:16.102Z,43.00
2019-06-20T10:13:46.857Z,43.40
2019-06-20T10:16:17.310Z,42.50
2019-06-20T10:18:48.444Z,43.20
2019-06-20T10:21:18.457Z,41.80
2019-06-20T10:23:49.675Z,42.10
2019-06-20T10:26:19.659Z,41.40
2019-06-20T10:28:49.432Z,42.90
2019-06-20T10:31:19.061Z,42.50
2019-06-20T10:33:50.851Z,41.10
2019-06-20T10:36:20.611Z,40.00
2019-06-20T10:38:50.427Z,40.30
2019-06-20T10:41:20.200Z,38.50
2019-06-20T10:43:49.861Z,39.70
2019-06-20T10:46:19.656Z,38.80
2019-06-20T10:48:50.090Z,36.90
2019-06-20T10:51:32.982Z,38.00
2019-06-20T10:54:03.121Z,38.60
2019-06-20T10:56:32.814Z,36.80
2019-06-20T10:59:02.579Z,36.80
2019-06-20T11:01:32.391Z,38.20
2019-06-20T11:04:02.278Z,38.90
2019-06-20T11:06:31.962Z,39.40
2019-06-20T11:09:01.634Z,38.00
2019-06-20T11:11:31.393Z,39.50
2019-06-20T11:14:00.949Z,40.00
2019-06-20T11:16:30.777Z,40.50
2019-06-20T11:19:00.520Z,40.40
2019-06-20T11:21:30.181Z,41.60
2019-06-20T11:24:00.124Z,41.40
2019-06-20T11:26:29.736Z,40.80
2019-06-20T11:28:59.338Z,40.30
2019-06-20T11:31:29.143Z,42.40
2019-06-20T11:33:59.165Z,41.20
2019-06-20T11:36:28.926Z,43.10
2019-06-20T11:39:00.989Z,41.30
2019-06-20T11:41:30.716Z,40.70
2019-06-20T11:44:00.409Z,40.70
2019-06-20T11:46:35.367Z,39.40
2019-06-20T11:49:06.003Z,38.90
2019-06-20T11:51:36.020Z,39.80
2019-06-20T11:54:05.990Z,38.70
2019-06-20T11:56:35.881Z,37.10
2019-06-20T11:59:05.602Z,37.80
2019-06-20T12:01:35.539Z,39.70
2019-06-20T12:04:05.345Z,36.90
2019-06-20T12:06:35.929Z,36.40
2019-06-20T12:09:08.030Z,34.80
2019-06-20T12:11:39.043Z,36.20
2019-06-20T12:14:09.530Z,35.90
2019-06-20T12:16:40.891Z,37.80
2019-06-20T12:19:10.784Z,36.80
2019-06-20T12:21:41.006Z,34.50
2019-06-20T12:24:12.871Z,35.20
2019-06-20T12:26:42.879Z,36.20
2019-06-20T12:29:12.711Z,36.10
2019-06-20T12:31:45.866Z,36.80
2019-06-20T12:34:16.841Z,37.00
2019-06-20T12:36:46.895Z,38.20
2019-06-20T12:39:16.926Z,37.70
2019-06-20T12:41:47.568Z,38.60
2019-06-20T12:44:17.555Z,37.50
2019-06-20T12:46:49.014Z,39.50
2019-06-20T12:49:19.151Z,39.50
2019-06-20T12:51:49.099Z,39.90
2019-06-20T12:54:19.358Z,40.30
2019-06-20T12:56:49.226Z,40.40
2019-06-20T12:59:19.940Z,40.30
2019-06-20T13:01:51.128Z,40.80
2019-06-20T13:04:21.174Z,40.60
2019-06-20T13:06:52.315Z,41.50
2019-06-20T13:09:22.353Z,41.70
2019-06-20T13:11:52.252Z,41.60
2019-06-20T13:14:22.078Z,42.10
2019-06-20T13:16:51.946Z,40.30
2019-06-20T13:19:21.773Z,39.20
2019-06-20T13:21:51.921Z,36.40
2019-06-20T13:24:21.599Z,38.90
2019-06-20T13:26:51.222Z,38.40
2019-06-20T13:29:21.082Z,39.50
2019-06-20T13:32:01.966Z,39.50
2019-06-20T13:34:22.612Z,40.70
2019-06-20T13:36:52.323Z,40.90
2019-06-20T13:39:22.699Z,41.60
2019-06-20T13:41:52.648Z,41.80
2019-06-20T13:44:22.329Z,41.80
2019-06-20T13:46:52.151Z,42.40
2019-06-20T13:49:21.919Z,42.80
2019-06-20T13:51:51.609Z,43.10
2019-06-20T13:54:21.441Z,43.00
2019-06-20T13:56:51.789Z,44.70
2019-06-20T13:59:22.494Z,46.00
2019-06-20T14:02:05.852Z,47.50
2019-06-20T14:04:23.652Z,49.00
2019-06-20T14:06:53.826Z,48.30
2019-06-20T14:09:24.062Z,49.50
2019-06-20T14:11:54.213Z,50.60
2019-06-20T14:14:24.699Z,51.80
2019-06-20T14:16:54.563Z,50.40
2019-06-20T14:19:24.262Z,51.60
2019-06-20T14:21:54.373Z,50.40
2019-06-20T14:24:24.195Z,49.90
2019-06-20T14:26:54.585Z,50.50
2019-06-20T14:29:24.595Z,50.30
2019-06-20T14:31:56.005Z,50.50
2019-06-20T14:34:25.729Z,50.30
2019-06-20T14:36:55.553Z,50.10
2019-06-20T14:39:25.250Z,50.60
2019-06-20T14:41:55.232Z,51.10
2019-06-20T14:44:24.987Z,49.70
2019-06-20T14:46:54.664Z,49.20
2019-06-20T14:49:24.418Z,50.70
2019-06-20T14:51:55.753Z,50.00
2019-06-20T14:54:25.486Z,48.80
2019-06-20T14:56:58.042Z,49.10
2019-06-20T14:59:27.456Z,48.70
2019-06-20T15:01:57.191Z,48.40
2019-06-20T15:04:26.734Z,49.30
2019-06-20T15:06:56.574Z,49.40
2019-06-20T15:09:26.483Z,48.80
2019-06-20T15:11:56.100Z,49.00
2019-06-20T15:14:25.727Z,48.90
2019-06-20T15:16:57.008Z,49.00
2019-06-20T15:19:26.642Z,51.30
2019-06-20T15:21:56.593Z,51.80
2019-06-20T15:24:26.471Z,51.50
2019-06-20T15:26:56.498Z,51.50
2019-06-20T15:29:26.369Z,51.60
2019-06-20T15:31:56.962Z,51.40
2019-06-20T15:34:26.940Z,51.20
2019-06-20T15:36:57.780Z,51.70
2019-06-20T15:39:27.553Z,51.00
2019-06-20T15:41:58.223Z,51.30
2019-06-20T15:44:27.979Z,52.10
2019-06-20T15:46:57.707Z,52.60
2019-06-20T15:49:27.326Z,51.20
2019-06-20T15:51:59.127Z,51.80
2019-06-20T15:54:28.482Z,51.70
2019-06-20T15:56:58.359Z,51.40
2019-06-20T15:59:27.906Z,51.30
2019-06-20T16:01:58.445Z,51.60
2019-06-20T16:04:28.568Z,50.70
2019-06-20T16:06:58.571Z,48.60
2019-06-20T16:09:28.256Z,48.70
2019-06-20T16:11:58.158Z,47.60
2019-06-20T16:14:27.710Z,49.10
2019-06-20T16:16:57.286Z,48.80
2019-06-20T16:19:26.928Z,48.00
2019-06-20T16:21:56.470Z,47.70
2019-06-20T16:24:26.182Z,46.80
2019-06-20T16:26:55.872Z,45.30
2019-06-20T16:29:25.472Z,45.70
2019-06-20T16:31:55.300Z,44.90
2019-06-20T16:34:24.930Z,43.70
2019-06-20T16:37:09.247Z,44.50
2019-06-20T16:39:26.338Z,45.30
2019-06-20T16:41:56.095Z,44.80
2019-06-20T16:44:25.900Z,45.70
2019-06-20T16:46:55.725Z,46.20
2019-06-20T16:49:25.652Z,46.20
2019-06-20T16:51:55.354Z,46.60
2019-06-20T16:54:26.385Z,47.20
2019-06-20T16:56:56.805Z,47.10
2019-06-20T16:59:26.554Z,47.50
2019-06-20T17:01:56.727Z,47.70
2019-06-20T17:04:26.693Z,48.40
2019-06-20T17:06:56.509Z,49.70
2019-06-20T17:09:26.534Z,49.50
2019-06-20T17:11:56.825Z,48.50
2019-06-20T17:14:26.479Z,49.30
2019-06-20T17:16:56.209Z,51.10
2019-06-20T17:19:25.745Z,50.30
2019-06-20T17:21:55.707Z,50.10
2019-06-20T17:24:25.392Z,50.10
2019-06-20T17:26:55.295Z,51.20
2019-06-20T17:29:24.980Z,51.40
2019-06-20T17:31:57.359Z,52.00
2019-06-20T17:34:26.050Z,52.40
2019-06-20T17:36:55.743Z,53.00
2019-06-20T17:39:25.565Z,53.50
2019-06-20T17:41:55.852Z,54.00
2019-06-20T17:44:27.568Z,55.10
2019-06-20T17:46:57.530Z,55.20
2019-06-20T17:49:27.237Z,56.30
2019-06-20T17:51:57.006Z,56.60
2019-06-20T17:54:29.165Z,57.00
2019-06-20T17:56:59.125Z,57.80
2019-06-20T17:59:29.306Z,57.90
2019-06-20T18:02:00.183Z,58.30
2019-06-20T18:04:29.991Z,58.90
2019-06-20T18:07:03.123Z,59.50
2019-06-20T18:09:33.071Z,59.80
2019-06-20T18:12:04.696Z,59.20
2019-06-20T18:14:34.616Z,60.00
2019-06-20T18:17:04.790Z,59.10
2019-06-20T18:19:34.479Z,59.40
2019-06-20T18:22:04.168Z,58.50
2019-06-20T18:24:33.753Z,56.50
2019-06-20T18:27:03.521Z,56.10
2019-06-20T18:29:33.827Z,56.00
2019-06-20T18:32:03.907Z,57.10
2019-06-20T18:34:34.032Z,56.90
2019-06-20T18:37:04.218Z,57.60
2019-06-20T18:39:34.531Z,57.50
2019-06-20T18:42:04.311Z,57.60
2019-06-20T18:44:34.145Z,57.80
2019-06-20T18:47:03.998Z,58.40
2019-06-20T18:49:33.864Z,58.40
2019-06-20T18:52:03.912Z,58.50
2019-06-20T18:54:33.706Z,59.30
2019-06-20T18:57:03.750Z,60.60
2019-06-20T18:59:34.563Z,61.40
2019-06-20T19:02:04.511Z,61.80
2019-06-20T19:04:46.466Z,62.30
2019-06-20T19:07:06.781Z,62.70
2019-06-20T19:09:36.602Z,64.20
2019-06-20T19:12:06.377Z,64.50
2019-06-20T19:14:36.344Z,65.00
2019-06-20T19:17:06.139Z,65.40
2019-06-20T19:19:35.832Z,65.40
2019-06-20T19:22:05.617Z,65.70
2019-06-20T19:24:35.415Z,66.30
2019-06-20T19:27:05.266Z,65.80
2019-06-20T19:29:35.059Z,66.30
2019-06-20T19:32:05.645Z,65.10
2019-06-20T19:34:35.257Z,65.90
2019-06-20T19:37:05.130Z,65.00
2019-06-20T19:39:35.337Z,65.30
2019-06-20T19:42:05.295Z,65.60
2019-06-20T19:44:37.224Z,65.60
2019-06-20T19:47:08.025Z,65.30
2019-06-20T19:49:37.948Z,66.00
2019-06-20T19:52:08.232Z,66.70
2019-06-20T19:54:38.089Z,66.80
2019-06-20T19:57:07.893Z,67.00
2019-06-20T19:59:38.066Z,67.40
2019-06-20T20:02:08.033Z,68.20
2019-06-20T20:04:38.214Z,68.70
2019-06-20T20:07:07.966Z,69.40
2019-06-20T20:09:38.339Z,69.20
2019-06-20T20:12:09.349Z,69.40
2019-06-20T20:14:39.554Z,70.00
2019-06-20T20:17:09.444Z,70.40
2019-06-20T20:19:39.304Z,69.60
2019-06-20T20:22:09.249Z,70.70
2019-06-20T20:24:40.107Z,70.30
2019-06-20T20:27:10.147Z,70.00
2019-06-20T20:29:40.152Z,70.20
2019-06-20T20:32:10.346Z,70.30
2019-06-20T20:34:40.464Z,70.10
2019-06-20T20:37:10.315Z,71.00
2019-06-20T20:39:40.598Z,71.50
2019-06-20T20:42:10.481Z,71.40
2019-06-20T20:44:41.695Z,70.70
2019-06-20T20:47:11.719Z,71.80
2019-06-20T20:49:41.791Z,72.50
2019-06-20T20:52:11.580Z,71.00
2019-06-20T20:54:41.782Z,70.30
2019-06-20T20:57:11.521Z,70.20
2019-06-20T20:59:41.664Z,71.30
2019-06-20T21:02:11.624Z,70.90
2019-06-20T21:04:41.839Z,70.50
2019-06-20T21:07:13.509Z,71.10
2019-06-20T21:09:43.874Z,71.90
2019-06-20T21:12:13.638Z,71.20
2019-06-20T21:14:43.611Z,69.90
2019-06-20T21:17:13.415Z,69.80
2019-06-20T21:19:43.373Z,70.20
2019-06-20T21:22:13.177Z,69.80
2019-06-20T21:24:42.967Z,69.60
2019-06-20T21:27:12.921Z,70.10
2019-06-20T21:29:42.905Z,70.20
2019-06-20T21:32:13.082Z,70.30
2019-06-20T21:34:42.785Z,70.30
2019-06-20T21:37:12.620Z,71.00
2019-06-20T21:39:42.518Z,71.00
2019-06-20T21:42:12.359Z,71.50
2019-06-20T21:44:41.983Z,72.30
2019-06-20T21:47:11.900Z,72.00
2019-06-20T21:49:41.520Z,72.50
2019-06-20T21:52:11.173Z,72.40
2019-06-20T21:54:40.798Z,73.10
2019-06-20T21:57:10.632Z,74.50
2019-06-20T21:59:40.358Z,75.00
2019-06-20T22:02:10.378Z,74.40
2019-06-20T22:04:53.798Z,76.20
2019-06-20T22:07:11.650Z,76.60
2019-06-20T22:09:41.554Z,75.80
2019-06-20T22:12:11.225Z,74.60
2019-06-20T22:14:40.938Z,76.20
2019-06-20T22:17:10.776Z,77.80
2019-06-20T22:19:40.398Z,79.30
2019-06-20T22:22:10.139Z,80.30
2019-06-20T22:24:40.045Z,80.00
2019-06-20T22:27:09.825Z,80.20
2019-06-20T22:29:39.601Z,80.70
2019-06-20T22:32:10.406Z,80.20
2019-06-20T22:34:40.129Z,78.80
2019-06-20T22:37:09.726Z,79.00
2019-06-20T22:39:39.359Z,79.60
2019-06-20T22:42:09.047Z,78.50
2019-06-20T22:44:38.595Z,78.10
2019-06-20T22:47:08.402Z,77.10
2019-06-20T22:49:37.960Z,77.80
2019-06-20T22:52:07.577Z,78.00
2019-06-20T22:54:37.241Z,78.60
2019-06-20T22:57:06.898Z,78.90
2019-06-20T22:59:36.437Z,78.90
2019-06-20T23:02:06.180Z,77.90
2019-06-20T23:04:35.779Z,80.50
2019-06-20T23:07:05.466Z,79.20
2019-06-20T23:09:35.113Z,79.10
2019-06-20T23:12:04.875Z,79.00
2019-06-20T23:14:34.448Z,80.50
2019-06-20T23:17:04.185Z,81.50
2019-06-20T23:19:33.752Z,83.80
2019-06-20T23:22:03.374Z,86.40
2019-06-20T23:24:33.104Z,88.20
2019-06-20T23:27:02.820Z,87.80
2019-06-20T23:29:32.458Z,88.20
2019-06-20T23:32:02.170Z,89.00
2019-06-20T23:34:31.782Z,88.00
2019-06-20T23:37:12.345Z,88.20
2019-06-20T23:39:32.728Z,88.50
2019-06-20T23:42:02.579Z,89.00
2019-06-20T23:44:32.111Z,89.50
2019-06-20T23:47:01.732Z,88.90
2019-06-20T23:49:31.269Z,90.30
2019-06-20T23:52:18.321Z,90.60
2019-06-20T23:54:47.917Z,90.30
2019-06-20T23:57:17.602Z,90.10
2019-06-20T23:59:47.177Z,88.60
